Time;durP1;ratioP1;P1;durP2;ratioP2;P2;SDS_P1;SDS_P2;PMS_P1;PMS_P2;Temp;Humidity;BMP_temperature;BMP_pressure;BME280_temperature;BME280_humidity;BME280_pressure;Samples;Min_cycle;Max_cycle;Signal;HPM_P1;HPM_P2
2022/02/23 00:01:43;;;;;;;37.50;4.70;;;;;;;4.18;100.00;99864.19;7390972;19;20387;-52
2022/02/23 00:04:13;;;;;;;29.77;5.23;;;;;;;4.18;100.00;99869.31;7387991;19;20430;-51
2022/02/23 00:06:43;;;;;;;28.40;4.60;;;;;;;4.23;100.00;99872.09;7395055;19;20391;-52
2022/02/23 00:09:12;;;;;;;39.47;5.43;;;;;;;4.22;100.00;99878.00;7389038;19;20421;-50
2022/02/23 00:11:45;;;;;;;29.23;4.90;;;;;;;4.20;100.00;99887.25;7392615;19;20380;-53
2022/02/23 00:14:15;;;;;;;22.60;4.10;;;;;;;4.21;100.00;99888.13;7385602;19;20419;-52
2022/02/23 00:16:44;;;;;;;40.60;4.90;;;;;;;4.23;100.00;99897.63;7391337;19;20395;-50
2022/02/23 00:19:14;;;;;;;27.03;4.60;;;;;;;4.27;100.00;99902.13;7388187;19;20410;-49
2022/02/23 00:21:44;;;;;;;35.67;5.80;;;;;;;4.31;100.00;99905.72;7390495;19;20407;-49
2022/02/23 00:24:14;;;;;;;28.57;5.80;;;;;;;4.34;100.00;99916.09;7387663;19;20415;-50
2022/02/23 00:26:48;;;;;;;38.43;5.90;;;;;;;4.39;100.00;99917.22;7392619;19;20380;-53
2022/02/23 00:29:18;;;;;;;27.57;4.23;;;;;;;4.36;100.00;99909.38;7389896;19;20486;-50
2022/02/23 00:31:47;;;;;;;38.33;6.10;;;;;;;4.45;100.00;99925.19;7394082;19;20387;-51
2022/02/23 00:34:17;;;;;;;41.57;6.70;;;;;;;4.37;100.00;99929.03;7397155;19;20411;-53
2022/02/23 00:36:49;;;;;;;35.70;4.50;;;;;;;4.40;100.00;99941.06;7398736;19;20750;-53
2022/02/23 00:39:18;;;;;;;35.70;5.53;;;;;;;4.43;100.00;99936.13;7397069;19;20411;-51
2022/02/23 00:41:53;;;;;;;35.13;5.03;;;;;;;4.39;100.00;99940.19;7396801;19;20472;-50
2022/02/23 00:44:22;;;;;;;20.93;3.03;;;;;;;4.40;100.00;99952.16;7396894;19;20434;-52
2022/02/23 00:46:52;;;;;;;33.10;4.97;;;;;;;4.43;100.00;99956.56;7401924;19;20412;-52
2022/02/23 00:49:22;;;;;;;38.13;6.00;;;;;;;4.42;100.00;99960.78;7398579;19;20390;-52
2022/02/23 00:51:59;;;;;;;34.57;6.10;;;;;;;4.45;100.00;99960.97;7396532;19;20413;-48
2022/02/23 00:54:28;;;;;;;40.20;5.93;;;;;;;4.53;100.00;99966.50;7396523;19;20763;-50
2022/02/23 00:57:00;;;;;;;37.53;8.33;;;;;;;4.51;100.00;99969.75;7393134;19;20457;-48
2022/02/23 00:59:30;;;;;;;53.17;6.83;;;;;;;4.48;100.00;99972.13;7397999;19;20731;-49
2022/02/23 01:02:00;;;;;;;40.70;6.97;;;;;;;4.65;100.00;99965.38;7392668;19;20402;-52
2022/02/23 01:04:29;;;;;;;27.90;5.10;;;;;;;4.58;100.00;99971.84;7396695;19;20420;-49
2022/02/23 01:06:59;;;;;;;26.63;4.20;;;;;;;4.59;100.00;99984.72;7395518;19;20388;-48
2022/02/23 01:09:29;;;;;;;45.13;6.33;;;;;;;4.65;100.00;99978.13;7397529;19;20744;-53
2022/02/23 01:12:01;;;;;;;43.83;6.80;;;;;;;4.61;100.00;99974.53;7394938;19;20396;-50
2022/02/23 01:14:30;;;;;;;33.47;5.57;;;;;;;4.54;100.00;99977.56;7396748;19;20403;-48
2022/02/23 01:17:00;;;;;;;31.77;6.43;;;;;;;4.53;100.00;99983.47;7395819;19;20387;-48
2022/02/23 01:19:29;;;;;;;59.53;6.90;;;;;;;4.59;100.00;99994.94;7399883;19;20394;-48
2022/02/23 01:22:00;;;;;;;38.30;6.00;;;;;;;4.59;100.00;99988.94;7394052;19;20383;-50
2022/02/23 01:24:30;;;;;;;44.17;5.07;;;;;;;4.61;100.00;99992.44;7396052;19;20488;-50
2022/02/23 01:27:05;;;;;;;41.20;5.60;;;;;;;4.64;100.00;99999.38;7397828;19;20418;-50
2022/02/23 01:29:34;;;;;;;42.73;9.50;;;;;;;4.68;100.00;99989.41;7396912;19;20391;-48
2022/02/23 01:32:05;;;;;;;35.83;5.80;;;;;;;4.66;100.00;99991.00;7395248;19;20797;-49
2022/02/23 01:34:35;;;;;;;35.10;5.33;;;;;;;4.67;100.00;100007.22;7396118;19;21235;-48
2022/02/23 01:37:05;;;;;;;22.50;4.87;;;;;;;4.64;100.00;100007.94;7394651;19;20408;-54
2022/02/23 01:39:34;;;;;;;31.40;5.13;;;;;;;4.61;100.00;100010.31;7396611;19;20388;-51
2022/02/23 01:42:11;;;;;;;33.77;6.07;;;;;;;4.68;100.00;100002.19;7392429;19;20399;-49
2022/02/23 01:44:43;;;;;;;36.90;4.67;;;;;;;4.68;100.00;100011.53;7393511;19;20400;-50
2022/02/23 01:47:14;;;;;;;35.87;5.23;;;;;;;4.67;100.00;100008.09;7391667;19;20498;-55
2022/02/23 01:49:43;;;;;;;43.77;5.57;;;;;;;4.60;100.00;100011.13;7395511;19;20738;-53
2022/02/23 01:52:13;;;;;;;30.43;4.73;;;;;;;4.62;100.00;100014.66;7393933;19;20758;-49
2022/02/23 01:54:44;;;;;;;35.70;5.17;;;;;;;4.68;100.00;100020.06;7395542;19;20447;-48
2022/02/23 01:57:16;;;;;;;37.63;6.70;;;;;;;4.63;100.00;100021.53;7394002;19;21151;-53
2022/02/23 01:59:45;;;;;;;41.07;4.50;;;;;;;4.59;100.00;100022.16;7396560;19;20384;-49
2022/02/23 02:02:15;;;;;;;34.00;5.40;;;;;;;4.57;100.00;100026.31;7392106;19;20411;-50
2022/02/23 02:04:44;;;;;;;38.87;4.77;;;;;;;4.59;100.00;100030.69;7395048;19;20942;-51
2022/02/23 02:07:14;;;;;;;27.83;4.80;;;;;;;4.60;100.00;100039.22;7386805;19;20415;-48
2022/02/23 02:09:43;;;;;;;27.57;5.20;;;;;;;4.62;100.00;100035.09;7396098;19;20759;-51
2022/02/23 02:12:16;;;;;;;33.50;5.13;;;;;;;4.54;100.00;100037.22;7394714;19;20765;-50
2022/02/23 02:14:46;;;;;;;33.07;5.20;;;;;;;4.53;100.00;100042.25;7395244;19;20415;-50
2022/02/23 02:17:15;;;;;;;38.77;6.20;;;;;;;4.49;100.00;100042.88;7392828;19;20399;-50
2022/02/23 02:19:46;;;;;;;28.87;4.20;;;;;;;4.46;100.00;100044.47;7395714;19;20472;-50
2022/02/23 02:22:20;;;;;;;31.53;4.80;;;;;;;4.45;100.00;100049.50;7392972;19;20431;-51
2022/02/23 02:24:50;;;;;;;31.27;5.03;;;;;;;4.44;100.00;100050.28;7394998;19;20478;-53
2022/02/23 02:27:19;;;;;;;23.10;3.13;;;;;;;4.41;100.00;100065.47;7392948;19;20771;-50
2022/02/23 02:29:49;;;;;;;37.63;4.73;;;;;;;4.41;100.00;100076.53;7395991;19;20388;-50
2022/02/23 02:32:19;;;;;;;29.67;3.87;;;;;;;4.39;100.00;100067.91;7393041;19;20753;-52
2022/02/23 02:34:49;;;;;;;28.30;3.60;;;;;;;4.41;100.00;100089.31;7394876;19;20415;-51
2022/02/23 02:37:21;;;;;;;43.47;5.40;;;;;;;4.39;100.00;100106.25;7392563;19;20411;-51
2022/02/23 02:39:51;;;;;;;36.93;4.27;;;;;;;4.46;100.00;100095.56;7395484;19;20734;-50
2022/02/23 02:42:24;;;;;;;31.43;4.83;;;;;;;4.44;100.00;100088.59;7392125;19;20407;-49
2022/02/23 02:44:54;;;;;;;30.83;4.50;;;;;;;4.46;100.00;100098.13;7394614;19;20403;-50
2022/02/23 02:47:24;;;;;;;30.60;4.93;;;;;;;4.46;100.00;100095.56;7394934;19;20418;-52
2022/02/23 02:49:54;;;;;;;28.67;5.67;;;;;;;4.43;100.00;100104.72;7395336;19;20463;-49
2022/02/23 02:52:27;;;;;;;24.93;4.33;;;;;;;4.46;100.00;100110.00;7391537;19;20429;-54
2022/02/23 02:54:57;;;;;;;23.23;3.90;;;;;;;4.46;100.00;100105.78;7394538;19;20411;-50
2022/02/23 02:57:26;;;;;;;21.33;4.30;;;;;;;4.52;100.00;100114.59;7391868;19;20961;-50
2022/02/23 02:59:56;;;;;;;46.37;5.30;;;;;;;4.51;100.00;100120.50;7394853;19;20393;-52
2022/02/23 03:02:27;;;;;;;40.93;5.50;;;;;;;4.45;100.00;100129.56;7391167;19;20417;-50
2022/02/23 03:04:57;;;;;;;17.23;2.43;;;;;;;4.42;100.00;100133.63;7393810;19;20779;-49
2022/02/23 03:07:31;;;;;;;34.23;4.50;;;;;;;4.53;100.00;100124.00;7391545;19;20486;-53
2022/02/23 03:10:01;;;;;;;32.10;3.80;;;;;;;4.47;100.00;100127.13;7394769;19;20396;-47
2022/02/23 03:12:30;;;;;;;30.77;4.73;;;;;;;4.45;100.00;100144.00;7390484;19;20482;-48
2022/02/23 03:15:00;;;;;;;45.23;4.80;;;;;;;4.51;100.00;100140.94;7393879;19;20423;-49
2022/02/23 03:17:32;;;;;;;23.97;4.00;;;;;;;4.48;100.00;100161.19;7393988;19;20768;-50
2022/02/23 03:20:01;;;;;;;32.70;4.17;;;;;;;4.54;100.00;100176.88;7395370;19;20386;-48
2022/02/23 03:22:35;;;;;;;28.77;4.67;;;;;;;4.50;100.00;100213.28;7390964;19;20975;-48
2022/02/23 03:25:05;;;;;;;29.73;4.77;;;;;;;4.54;100.00;100210.09;7393485;19;20407;-52
2022/02/23 03:27:35;;;;;;;29.33;4.00;;;;;;;4.53;100.00;100231.31;7390952;19;20399;-48
2022/02/23 03:30:05;;;;;;;63.57;5.53;;;;;;;4.53;100.00;100249.22;7394097;19;20773;-54
2022/02/23 03:32:35;;;;;;;32.33;5.70;;;;;;;4.58;100.00;100232.47;7391266;19;20425;-52
2022/02/23 03:35:05;;;;;;;25.47;4.37;;;;;;;4.52;100.00;100258.53;7392982;19;20423;-50
2022/02/23 03:37:39;;;;;;;26.70;4.27;;;;;;;4.54;100.00;100258.63;7390523;19;20416;-50
2022/02/23 03:40:10;;;;;;;32.20;4.17;;;;;;;4.51;100.00;100273.78;7394014;19;20387;-52
2022/02/23 03:42:39;;;;;;;22.83;5.43;;;;;;;4.50;100.00;100289.94;7390725;19;20437;-51
2022/02/23 03:45:10;;;;;;;19.27;3.77;;;;;;;4.53;100.00;100284.97;7392523;19;20399;-50
2022/02/23 03:47:39;;;;;;;26.07;5.03;;;;;;;4.60;100.00;100297.31;7390164;19;20415;-50
2022/02/23 03:50:09;;;;;;;28.57;5.30;;;;;;;4.67;100.00;100314.78;7393475;19;20379;-52
2022/02/23 03:52:44;;;;;;;22.17;4.37;;;;;;;4.65;100.00;100334.25;7390278;19;20410;-50
2022/02/23 03:55:14;;;;;;;22.23;4.47;;;;;;;4.69;100.00;100351.53;7392338;19;20407;-48
2022/02/23 03:57:44;;;;;;;19.97;4.60;;;;;;;4.74;100.00;100374.81;7389593;19;20415;-48
2022/02/23 04:00:16;;;;;;;38.70;4.30;;;;;;;4.75;100.00;100383.34;7393113;19;20414;-52
2022/02/23 04:02:46;;;;;;;23.60;3.97;;;;;;;4.78;100.00;100401.44;7388882;19;20426;-50
2022/02/23 04:05:15;;;;;;;20.50;3.60;;;;;;;4.71;100.00;100429.19;7395623;19;20431;-52
2022/02/23 04:07:47;;;;;;;22.30;4.07;;;;;;;4.79;100.00;100441.53;7388614;19;20498;-48
2022/02/23 04:10:19;;;;;;;23.57;4.00;;;;;;;4.77;100.00;100461.03;7393066;19;20407;-50
2022/02/23 04:12:49;;;;;;;30.30;3.67;;;;;;;4.79;100.00;100468.00;7390094;19;20938;-48
2022/02/23 04:15:19;;;;;;;28.70;5.07;;;;;;;4.79;100.00;100487.56;7391939;19;20514;-54
2022/02/23 04:17:48;;;;;;;22.97;4.70;;;;;;;4.81;100.00;100497.09;7390942;19;20435;-48
2022/02/23 04:20:18;;;;;;;22.43;3.90;;;;;;;4.80;100.00;100505.53;7394779;19;20391;-49
2022/02/23 04:22:51;;;;;;;30.83;4.00;;;;;;;4.78;100.00;100527.59;7388725;19;20502;-51
2022/02/23 04:25:20;;;;;;;28.63;4.07;;;;;;;4.78;100.00;100548.03;7394978;19;20937;-52
2022/02/23 04:27:50;;;;;;;21.60;4.10;;;;;;;4.82;100.00;100559.34;7393154;19;20977;-50
2022/02/23 04:30:20;;;;;;;31.10;3.33;;;;;;;4.79;100.00;100575.38;7396962;19;20785;-49
2022/02/23 04:32:51;;;;;;;18.70;3.23;;;;;;;4.79;100.00;100593.25;7392890;19;20444;-49
2022/02/23 04:35:21;;;;;;;29.10;4.03;;;;;;;4.78;100.00;100598.25;7395074;19;20512;-52
2022/02/23 04:37:55;;;;;;;30.87;3.90;;;;;;;4.80;100.00;100609.47;7387013;19;20447;-52
2022/02/23 04:40:25;;;;;;;25.37;3.67;;;;;;;4.82;100.00;100631.78;7395518;19;20410;-48
2022/02/23 04:42:54;;;;;;;24.37;3.03;;;;;;;4.84;100.00;100630.22;7390059;19;20461;-54
2022/02/23 04:45:24;;;;;;;16.47;3.90;;;;;;;4.84;100.00;100653.25;7392853;19;20378;-51
2022/02/23 04:47:55;;;;;;;28.53;4.70;;;;;;;4.82;100.00;100662.47;7386984;19;20458;-53
2022/02/23 04:50:25;;;;;;;26.00;4.80;;;;;;;4.86;100.00;100661.88;7393747;19;20906;-54
2022/02/23 04:52:59;;;;;;;24.50;3.83;;;;;;;4.89;100.00;100679.09;7388020;19;20867;-49
2022/02/23 04:55:29;;;;;;;23.53;3.57;;;;;;;4.89;100.00;100683.31;7395121;19;20402;-50
2022/02/23 04:57:58;;;;;;;25.23;3.23;;;;;;;4.88;100.00;100686.66;7386484;19;20945;-50
2022/02/23 05:00:28;;;;;;;22.67;3.70;;;;;;;4.85;100.00;100689.91;7391838;19;20387;-50
2022/02/23 05:02:59;;;;;;;27.27;3.33;;;;;;;4.84;100.00;100693.25;7386925;19;20956;-49
2022/02/23 05:05:29;;;;;;;22.40;3.73;;;;;;;4.81;100.00;100705.81;7391278;19;20399;-51
2022/02/23 05:08:03;;;;;;;13.80;3.03;;;;;;;4.82;100.00;100702.50;7386924;19;20415;-48
2022/02/23 05:10:32;;;;;;;17.57;3.53;;;;;;;4.80;100.00;100696.38;7391467;19;20379;-49
2022/02/23 05:13:02;;;;;;;24.20;3.80;;;;;;;4.84;100.00;100706.03;7389856;19;20526;-48
2022/02/23 05:15:32;;;;;;;26.40;3.87;;;;;;;4.79;100.00;100703.19;7395721;19;20758;-49
2022/02/23 05:18:03;;;;;;;15.83;2.80;;;;;;;4.82;100.00;100712.72;7387529;19;20419;-47
2022/02/23 05:20:33;;;;;;;27.80;4.00;;;;;;;4.79;100.00;100708.28;7399740;19;20808;-48
2022/02/23 05:23:08;;;;;;;26.83;4.10;;;;;;;4.80;100.00;100711.72;7393960;19;20426;-51
2022/02/23 05:25:38;;;;;;;18.17;3.10;;;;;;;4.78;100.00;100700.53;7400775;19;20396;-48
2022/02/23 05:28:07;;;;;;;14.87;3.20;;;;;;;4.81;100.00;100713.47;7394544;19;20446;-50
2022/02/23 05:30:41;;;;;;;23.87;3.63;;;;;;;4.82;100.00;100728.06;7398517;19;20388;-49
2022/02/23 05:33:10;;;;;;;26.03;3.67;;;;;;;4.82;100.00;100728.94;7394700;19;20429;-48
2022/02/23 05:35:40;;;;;;;16.93;2.70;;;;;;;4.80;100.00;100737.28;7397738;19;20403;-51
2022/02/23 05:38:12;;;;;;;27.93;3.67;;;;;;;4.83;100.00;100737.50;7393259;19;20419;-47
2022/02/23 05:40:41;;;;;;;17.60;2.80;;;;;;;4.82;100.00;100738.28;7398076;19;20918;-53
2022/02/23 05:43:11;;;;;;;18.23;2.47;;;;;;;4.76;100.00;100748.13;7394306;19;20446;-49
2022/02/23 05:45:40;;;;;;;22.23;4.50;;;;;;;4.80;100.00;100735.63;7398928;19;20385;-53
2022/02/23 05:48:12;;;;;;;22.33;5.00;;;;;;;4.79;100.00;100738.97;7393389;19;20772;-50
2022/02/23 05:50:42;;;;;;;31.83;7.20;;;;;;;4.90;100.00;100742.22;7397637;19;20419;-49
2022/02/23 05:53:15;;;;;;;25.50;3.53;;;;;;;4.79;100.00;100748.31;7396379;19;20450;-49
2022/02/23 05:55:45;;;;;;;24.83;3.73;;;;;;;4.82;100.00;100753.63;7397054;19;20380;-53
2022/02/23 05:58:15;;;;;;;17.83;3.50;;;;;;;4.84;100.00;100757.16;7393543;19;20435;-52
2022/02/23 06:00:44;;;;;;;30.73;4.50;;;;;;;4.85;100.00;100764.03;7397293;19;20396;-51
2022/02/23 06:03:16;;;;;;;34.40;5.27;;;;;;;4.82;100.00;100763.84;7392676;19;20415;-49
2022/02/23 06:05:45;;;;;;;17.77;3.50;;;;;;;4.69;100.00;100764.72;7396584;19;20394;-50
2022/02/23 06:08:19;;;;;;;32.63;4.17;;;;;;;4.68;100.00;100756.16;7394473;19;20420;-49
2022/02/23 06:10:49;;;;;;;22.53;3.47;;;;;;;4.73;100.00;100759.88;7397224;19;20743;-51
2022/02/23 06:13:18;;;;;;;23.13;4.20;;;;;;;4.75;100.00;100761.66;7394546;19;20498;-47
2022/02/23 06:15:48;;;;;;;21.67;4.27;;;;;;;4.78;100.00;100767.88;7396334;19;20402;-48
2022/02/23 06:18:20;;;;;;;29.57;5.73;;;;;;;4.69;100.00;100768.16;7393104;19;20450;-50
2022/02/23 06:20:50;;;;;;;41.43;5.47;;;;;;;4.65;100.00;100766.19;7396734;19;20387;-50
2022/02/23 06:23:23;;;;;;;48.53;10.07;;;;;;;4.73;100.00;100765.00;7392548;19;20850;-48
2022/02/23 06:25:54;;;;;;;63.00;12.43;;;;;;;4.62;100.00;100755.78;7396157;19;20388;-49
2022/02/23 06:28:23;;;;;;;41.00;9.53;;;;;;;4.55;100.00;100757.03;7392456;19;20438;-49
2022/02/23 06:30:53;;;;;;;29.83;6.67;;;;;;;4.53;100.00;100763.72;7395510;19;20408;-52
2022/02/23 06:33:25;;;;;;;22.33;3.80;;;;;;;4.51;100.00;100766.94;7392426;19;20430;-47
2022/02/23 06:35:55;;;;;;;25.37;4.33;;;;;;;4.46;100.00;100770.06;7395990;19;20384;-53
2022/02/23 06:38:28;;;;;;;33.43;6.90;;;;;;;4.49;100.00;100771.94;7391041;19;20411;-51
2022/02/23 06:40:58;;;;;;;46.80;9.27;;;;;;;4.54;100.00;100760.38;7396092;19;20394;-49
2022/02/23 06:43:28;;;;;;;32.53;5.00;;;;;;;4.55;100.00;100763.78;7391736;19;20427;-50
2022/02/23 06:45:59;;;;;;;32.10;6.77;;;;;;;4.60;100.00;100767.53;7397499;19;20396;-49
2022/02/23 06:48:29;;;;;;;35.77;4.97;;;;;;;4.51;100.00;100769.50;7391765;19;20407;-48
2022/02/23 06:50:59;;;;;;;23.13;4.50;;;;;;;4.55;100.00;100769.81;7396132;19;20387;-50
2022/02/23 06:53:32;;;;;;;38.17;7.40;;;;;;;4.51;100.00;100769.50;7391282;19;20451;-47
2022/02/23 06:56:02;;;;;;;22.77;3.10;;;;;;;4.50;100.00;100772.84;7395412;19;20383;-47
2022/02/23 06:58:31;;;;;;;41.93;6.93;;;;;;;4.54;100.00;100772.25;7393268;19;20419;-49
2022/02/23 07:01:00;;;;;;;24.03;4.23;;;;;;;4.48;100.00;100776.94;7395184;19;20388;-49
2022/02/23 07:03:32;;;;;;;31.50;4.33;;;;;;;4.54;100.00;100779.91;7388850;19;20423;-50
2022/02/23 07:06:01;;;;;;;26.63;5.33;;;;;;;4.57;100.00;100793.78;7396296;19;20920;-48
2022/02/23 07:08:35;;;;;;;29.83;5.00;;;;;;;4.66;100.00;100798.63;7391107;19;20426;-48
2022/02/23 07:11:05;;;;;;;29.10;5.03;;;;;;;4.70;100.00;100803.16;7395358;19;20402;-50
2022/02/23 07:13:34;;;;;;;35.57;4.93;;;;;;;4.68;100.00;100809.81;7390379;19;20419;-52
2022/02/23 07:16:04;;;;;;;37.70;6.23;;;;;;;4.69;100.00;100808.16;7394909;19;20404;-49
2022/02/23 07:18:36;;;;;;;20.40;3.90;;;;;;;4.61;100.00;100820.41;7388200;19;20403;-52
2022/02/23 07:21:06;;;;;;;26.90;4.07;;;;;;;4.69;100.00;100818.38;7394700;19;20391;-53
2022/02/23 07:23:40;;;;;;;17.63;3.70;;;;;;;4.69;100.00;100823.50;7389603;19;20438;-50
2022/02/23 07:26:09;;;;;;;25.47;4.97;;;;;;;4.73;100.00;100831.47;7392375;19;20380;-50
2022/02/23 07:28:39;;;;;;;29.90;4.53;;;;;;;4.61;100.00;100838.31;7390326;19;20490;-48
2022/02/23 07:31:13;;;;;;;37.83;4.80;;;;;;;4.64;100.00;100837.63;7394613;19;20399;-47
2022/02/23 07:33:43;;;;;;;26.60;6.57;;;;;;;4.63;100.00;100839.31;7387595;19;20407;-47
2022/02/23 07:36:13;;;;;;;19.73;4.03;;;;;;;4.61;100.00;100830.66;7394678;19;20455;-49
2022/02/23 07:38:47;;;;;;;36.37;5.70;;;;;;;4.65;100.00;100841.97;7390116;19;20486;-49
2022/02/23 07:41:22;;;;;;;33.57;4.00;;;;;;;4.64;100.00;100842.75;7392274;19;20462;-52
2022/02/23 07:44:12;;;;;;;14.70;3.70;;;;;;;4.59;100.00;100837.34;7389770;19;20411;-49
2022/02/23 07:46:44;;;;;;;29.30;4.20;;;;;;;4.64;100.00;100846.19;7397374;19;20407;-47
2022/02/23 07:49:14;;;;;;;37.97;4.70;;;;;;;4.66;100.00;100842.06;7390057;19;20953;-50
2022/02/23 07:51:45;;;;;;;23.50;5.27;;;;;;;4.67;100.00;100841.28;7393838;19;20408;-48
2022/02/23 07:54:17;;;;;;;38.07;4.63;;;;;;;4.65;100.00;100847.06;7389733;19;20414;-47
2022/02/23 07:56:46;;;;;;;22.80;4.00;;;;;;;4.61;100.00;100851.09;7393239;19;20724;-51
2022/02/23 07:59:16;;;;;;;31.40;6.20;;;;;;;4.62;100.00;100852.88;7393746;19;20441;-51
2022/02/23 08:01:47;;;;;;;20.83;3.10;;;;;;;4.72;100.00;100854.41;7394923;19;20403;-50
2022/02/23 08:04:20;;;;;;;30.33;3.80;;;;;;;4.75;100.00;100863.91;7394756;19;20527;-53
2022/02/23 08:06:50;;;;;;;36.93;5.50;;;;;;;4.72;100.00;100865.50;7397769;19;20488;-50
2022/02/23 08:09:22;;;;;;;20.60;4.30;;;;;;;4.79;100.00;100868.47;7392052;19;20415;-48
2022/02/23 08:11:54;;;;;;;22.73;3.83;;;;;;;4.81;100.00;100874.53;7389190;19;20455;-48
2022/02/23 08:14:24;;;;;;;23.33;2.97;;;;;;;4.79;100.00;100877.03;7391570;19;20416;-48
2022/02/23 08:19:37;;;;;;;32.17;5.23;;;;;;;4.84;100.00;100892.66;7391891;19;20381;-48
2022/02/23 08:22:10;;;;;;;22.40;3.87;;;;;;;4.82;100.00;100897.66;7389269;19;20394;-48
2022/02/23 08:24:45;;;;;;;37.67;3.90;;;;;;;4.88;100.00;100904.88;7392594;19;20442;-47
2022/02/23 08:27:16;;;;;;;37.90;5.93;;;;;;;4.88;100.00;100907.44;7390059;19;20492;-53
2022/02/23 08:29:46;;;;;;;28.77;5.90;;;;;;;4.96;100.00;100913.03;7392073;19;20934;-51
2022/02/23 08:32:18;;;;;;;24.50;4.43;;;;;;;4.97;100.00;100914.84;7389412;19;20829;-51
2022/02/23 08:34:49;;;;;;;26.53;3.80;;;;;;;4.95;100.00;100909.63;7390928;19;20753;-52
2022/02/23 08:37:18;;;;;;;33.10;4.83;;;;;;;5.02;100.00;100920.25;7388748;19;20403;-47
2022/02/23 08:39:51;;;;;;;19.77;2.27;;;;;;;5.10;100.00;100919.09;7391755;19;20399;-48
2022/02/23 08:42:21;;;;;;;35.13;4.40;;;;;;;5.16;100.00;100923.72;7389536;19;20433;-49
2022/02/23 08:44:50;;;;;;;18.90;3.63;;;;;;;5.16;100.00;100929.72;7394408;19;20443;-50
2022/02/23 08:47:23;;;;;;;16.43;2.53;;;;;;;5.07;100.00;100936.81;7388356;19;20420;-49
2022/02/23 08:49:53;;;;;;;11.97;2.93;;;;;;;5.07;100.00;100936.81;7391457;19;20739;-50
2022/02/23 08:52:22;;;;;;;28.37;4.50;;;;;;;5.13;100.00;100939.78;7388158;19;20409;-49
2022/02/23 08:54:54;;;;;;;25.30;4.27;;;;;;;5.07;100.00;100947.91;7397261;19;20425;-50
2022/02/23 08:57:25;;;;;;;19.00;4.77;;;;;;;5.09;100.00;100955.69;7396012;19;20421;-49
2022/02/23 08:59:55;;;;;;;32.93;5.73;;;;;;;5.16;100.00;100947.63;7400092;19;20463;-51
2022/02/23 09:02:24;;;;;;;24.97;4.23;;;;;;;5.16;100.00;100952.75;7395104;19;20419;-48
2022/02/23 09:04:54;;;;;;;22.60;4.90;;;;;;;5.13;100.00;100950.00;7396894;19;20422;-49
2022/02/23 09:07:23;;;;;;;27.03;7.23;;;;;;;5.33;100.00;100942.75;7395841;19;20414;-47
2022/02/23 09:09:55;;;;;;;24.17;3.17;;;;;;;5.50;100.00;100947.28;7399910;19;20403;-49
2022/02/23 09:12:25;;;;;;;23.90;4.63;;;;;;;5.46;100.00;100964.91;7394652;19;20427;-47
2022/02/23 09:14:55;;;;;;;46.77;9.10;;;;;;;5.40;100.00;100967.97;7398202;19;20427;-48
2022/02/23 09:17:25;;;;;;;69.77;18.97;;;;;;;5.48;100.00;100974.47;7395784;19;20411;-48
2022/02/23 09:19:55;;;;;;;25.90;4.63;;;;;;;5.44;100.00;100987.84;7397855;19;20400;-48
2022/02/23 09:22:24;;;;;;;23.20;5.00;;;;;;;5.48;100.00;100977.03;7395508;19;20404;-49
2022/02/23 09:24:56;;;;;;;16.00;2.97;;;;;;;5.41;100.00;100997.88;7396209;19;20415;-52
2022/02/23 09:27:26;;;;;;;23.73;5.97;;;;;;;5.34;100.00;100994.03;7392485;19;20421;-47
2022/02/23 09:29:56;;;;;;;25.50;4.23;;;;;;;5.35;100.00;100988.16;7397792;19;20403;-49
2022/02/23 09:32:25;;;;;;;8.33;1.97;;;;;;;5.30;100.00;100994.63;7394576;19;20466;-47
2022/02/23 09:34:55;;;;;;;23.90;4.40;;;;;;;5.28;100.00;100991.06;7396277;19;20757;-50
2022/02/23 09:37:24;;;;;;;31.73;8.73;;;;;;;5.33;100.00;100999.06;7393318;19;20752;-47
2022/02/23 09:39:56;;;;;;;29.53;6.20;;;;;;;5.34;100.00;100996.56;7397618;19;20443;-47
2022/02/23 09:42:28;;;;;;;54.30;14.03;;;;;;;5.36;100.00;100995.03;7393012;19;20835;-47
2022/02/23 09:45:00;;;;;;;64.40;15.10;;;;;;;5.44;100.00;101004.88;7398209;19;20432;-49
2022/02/23 09:47:46;;;;;;;35.50;6.50;;;;;;;5.63;100.00;101012.09;7394253;19;20996;-47
2022/02/23 09:50:20;;;;;;;23.93;4.57;;;;;;;5.65;100.00;101013.97;7397103;19;20400;-48
2022/02/23 09:52:50;;;;;;;51.80;14.80;;;;;;;5.64;100.00;101017.31;7393927;19;20760;-51
2022/02/23 09:55:24;;;;;;;64.27;11.43;;;;;;;5.73;100.00;101032.41;7396856;19;20428;-49
2022/02/23 09:57:53;;;;;;;29.00;5.23;;;;;;;5.67;100.00;101019.19;7397028;19;20602;-54
2022/02/23 10:00:23;;;;;;;23.33;4.77;;;;;;;5.63;100.00;101028.34;7400617;19;20463;-48
2022/02/23 10:02:54;;;;;;;24.77;4.00;;;;;;;5.69;100.00;101050.91;7394574;19;20437;-51
2022/02/23 10:05:24;;;;;;;22.53;4.50;;;;;;;5.84;100.00;101048.47;7396533;19;20823;-51
2022/02/23 10:07:54;;;;;;;21.40;4.10;;;;;;;6.00;100.00;101062.28;7396600;19;20806;-49
2022/02/23 10:10:35;;;;;;;10.47;3.20;;;;;;;6.03;100.00;101068.53;7401020;19;20393;-52
2022/02/23 10:13:05;;;;;;;18.70;4.90;;;;;;;5.90;100.00;101096.66;7396543;19;20435;-47
2022/02/23 10:15:40;;;;;;;25.20;5.13;;;;;;;6.01;100.00;101095.66;7400790;19;20388;-49
2022/02/23 10:18:11;;;;;;;13.73;3.00;;;;;;;5.94;100.00;101099.53;7395595;19;20436;-48
2022/02/23 10:20:42;;;;;;;23.63;5.40;;;;;;;5.89;100.00;101112.81;7400354;19;20393;-46
2022/02/23 10:23:18;;;;;;;21.90;4.40;;;;;;;5.83;100.00;101126.09;7395923;19;20835;-47
2022/02/23 10:25:54;;;;;;;20.53;4.97;;;;;;;5.98;100.00;101123.66;7399768;19;20934;-49
2022/02/23 10:28:26;;;;;;;9.80;2.73;;;;;;;5.84;100.00;101129.56;7395829;19;20446;-48
2022/02/23 10:30:58;;;;;;;21.33;3.03;;;;;;;5.98;100.00;101139.03;7400623;19;20388;-50
2022/02/23 10:33:30;;;;;;;21.53;4.23;;;;;;;5.90;100.00;101158.13;7393905;19;20449;-50
2022/02/23 10:36:22;;;;;;;9.43;1.90;;;;;;;5.97;100.00;101162.88;7396383;19;20392;-51
2022/02/23 10:39:00;;;;;;;18.97;4.00;;;;;;;6.09;100.00;101173.06;7391189;19;20430;-50
2022/02/23 10:41:37;;;;;;;16.60;3.40;;;;;;;6.14;100.00;101181.06;7395888;19;20452;-51
2022/02/23 10:44:07;;;;;;;14.23;3.20;;;;;;;6.13;100.00;101176.72;7391600;19;20974;-47
2022/02/23 10:46:40;;;;;;;20.83;4.17;;;;;;;6.32;100.00;101197.66;7398057;19;20480;-48
2022/02/23 10:49:09;;;;;;;23.83;3.70;;;;;;;6.30;100.00;101198.38;7391831;19;20414;-47
2022/02/23 10:51:42;;;;;;;20.10;4.40;;;;;;;6.41;100.00;101207.63;7395164;19;20739;-49
2022/02/23 10:54:14;;;;;;;15.63;2.83;;;;;;;6.37;100.00;101215.03;7390894;19;20426;-47
2022/02/23 10:56:47;;;;;;;17.50;3.87;;;;;;;6.41;100.00;101240.97;7395621;19;20394;-48
2022/02/23 10:59:19;;;;;;;16.83;3.33;;;;;;;6.65;100.00;101256.19;7396482;19;20441;-48
2022/02/23 11:01:50;;;;;;;18.47;2.50;;;;;;;6.82;100.00;101252.16;7395004;19;20399;-52
2022/02/23 11:04:21;;;;;;;26.63;5.37;;;;;;;7.08;100.00;101270.91;7393362;19;21006;-50
2022/02/23 11:06:53;;;;;;;25.33;4.10;;;;;;;7.14;100.00;101279.00;7390061;19;20387;-59
2022/02/23 11:09:25;;;;;;;7.77;1.50;;;;;;;6.89;100.00;101303.06;7393955;19;20401;-48
2022/02/23 11:11:58;;;;;;;15.50;3.23;;;;;;;6.83;100.00;101307.78;7391763;19;20736;-49
2022/02/23 11:14:27;;;;;;;13.67;2.73;;;;;;;7.04;100.00;101312.56;7390549;19;21415;-49
2022/02/23 11:16:57;;;;;;;18.60;3.90;;;;;;;7.19;100.00;101322.03;7386666;19;20402;-53
2022/02/23 11:19:28;;;;;;;17.70;3.07;;;;;;;7.19;100.00;101332.31;7390313;19;20384;-48
2022/02/23 11:21:57;;;;;;;24.33;3.10;;;;;;;7.35;100.00;101339.31;7387988;19;20387;-54
2022/02/23 11:24:27;;;;;;;17.57;2.63;;;;;;;7.52;100.00;101340.38;7389475;19;20503;-50
2022/02/23 11:27:04;;;;;;;16.30;2.10;;;;;;;7.35;100.00;101350.50;7388144;19;20488;-49
2022/02/23 11:29:39;;;;;;;8.73;2.37;;;;;;;7.07;100.00;101356.38;7390531;19;20721;-51
2022/02/23 11:32:10;;;;;;;11.60;2.33;;;;;;;7.32;100.00;101355.41;7388225;19;20461;-48
2022/02/23 11:34:41;;;;;;;13.57;2.77;;;;;;;7.64;100.00;101356.56;7390759;19;20427;-47
2022/02/23 11:37:16;;;;;;;11.10;2.30;;;;;;;7.49;100.00;101358.19;7388654;19;20954;-48
2022/02/23 11:39:47;;;;;;;9.63;1.70;;;;;;;7.41;100.00;101381.69;7391120;19;20390;-47